Time;durP1;ratioP1;P1;durP2;ratioP2;P2;SDS_P1;SDS_P2;PMS_P1;PMS_P2;Temp;Humidity;BMP_temperature;BMP_pressure;BME280_temperature;BME280_humidity;BME280_pressure;Samples;Min_cycle;Max_cycle;Signal;HPM_P1;HPM_P2
2021/04/26 00:00:55;;;;;;;22.60;11.52;;;;;;;;;;5113898;28;20080;-68
2021/04/26 00:03:20;;;;;;;21.63;11.77;;;;;;;;;;5113535;28;20035;-68
2021/04/26 00:05:45;;;;;;;26.55;12.75;;;;;;;;;;5114144;28;20016;-68
2021/04/26 00:08:11;;;;;;;24.27;12.18;;;;;;;;;;5112779;28;20032;-67
2021/04/26 00:10:37;;;;;;;27.27;13.52;;;;;;;;;;5112844;28;20421;-68
2021/04/26 00:13:02;;;;;;;24.35;13.15;;;;;;;;;;5114174;28;20027;-67
2021/04/26 00:15:29;;;;;;;23.55;12.70;;;;;;;;;;5113871;28;20482;-68
2021/04/26 00:17:54;;;;;;;26.27;14.27;;;;;;;;;;5113694;28;20500;-68
2021/04/26 00:20:22;;;;;;;29.83;14.73;;;;;;;;;;5115949;28;20024;-68
2021/04/26 00:22:47;;;;;;;33.63;14.98;;;;;;;;;;5118409;27;20046;-68
2021/04/26 00:25:13;;;;;;;29.08;14.98;;;;;;;;;;5118327;28;20446;-68
2021/04/26 00:27:39;;;;;;;27.25;13.48;;;;;;;;;;5118074;28;20054;-68
2021/04/26 00:30:06;;;;;;;27.55;12.50;;;;;;;;;;5117957;28;20034;-68
2021/04/26 00:32:31;;;;;;;24.60;12.25;;;;;;;;;;5117986;28;20449;-68
2021/04/26 00:34:57;;;;;;;28.27;13.60;;;;;;;;;;5116646;28;20077;-67
2021/04/26 00:37:22;;;;;;;26.13;13.25;;;;;;;;;;5117884;28;20027;-68
2021/04/26 00:39:48;;;;;;;27.42;14.18;;;;;;;;;;5116307;28;20011;-68
2021/04/26 00:42:13;;;;;;;24.33;12.95;;;;;;;;;;5117172;28;20555;-68
2021/04/26 00:44:39;;;;;;;28.10;13.43;;;;;;;;;;5117692;28;20381;-68
2021/04/26 00:47:04;;;;;;;33.97;16.50;;;;;;;;;;5117823;28;20024;-68
2021/04/26 00:49:30;;;;;;;36.90;17.80;;;;;;;;;;5117485;28;20411;-68
2021/04/26 00:51:56;;;;;;;35.97;19.42;;;;;;;;;;5116330;28;20035;-68
2021/04/26 00:54:21;;;;;;;47.20;21.35;;;;;;;;;;5116504;28;20045;-67
2021/04/26 00:56:47;;;;;;;31.25;15.88;;;;;;;;;;5115944;28;20035;-68
2021/04/26 00:59:13;;;;;;;34.88;16.27;;;;;;;;;;5117521;28;20461;-68
2021/04/26 01:01:38;;;;;;;47.10;19.77;;;;;;;;;;5115653;28;20507;-67
2021/04/26 01:04:04;;;;;;;39.45;18.67;;;;;;;;;;5116005;28;20016;-66
2021/04/26 01:06:29;;;;;;;40.20;18.15;;;;;;;;;;5115935;28;20100;-67
2021/04/26 01:08:55;;;;;;;29.60;15.35;;;;;;;;;;5115657;28;20018;-67
2021/04/26 01:11:43;;;;;;;33.22;14.98;;;;;;;;;;5115644;28;20115;-67
2021/04/26 01:14:17;;;;;;;30.58;14.32;;;;;;;;;;5117205;28;20170;-67
2021/04/26 01:16:46;;;;;;;31.52;15.43;;;;;;;;;;5116037;28;20028;-67
2021/04/26 01:19:21;;;;;;;32.28;15.23;;;;;;;;;;5117110;28;20020;-68
2021/04/26 01:22:07;;;;;;;30.77;14.38;;;;;;;;;;5115617;28;20027;-67
2021/04/26 01:24:43;;;;;;;29.85;15.25;;;;;;;;;;5115909;28;20028;-67
2021/04/26 01:27:15;;;;;;;30.80;15.52;;;;;;;;;;5117126;28;20027;-67
2021/04/26 01:29:59;;;;;;;33.65;17.65;;;;;;;;;;5115930;28;20034;-67
2021/04/26 01:32:34;;;;;;;37.88;17.92;;;;;;;;;;5115760;28;20031;-67
2021/04/26 01:35:04;;;;;;;29.27;15.38;;;;;;;;;;5115504;28;20081;-67
2021/04/26 01:37:35;;;;;;;33.22;15.52;;;;;;;;;;5115335;28;20043;-67
2021/04/26 01:40:03;;;;;;;34.00;15.65;;;;;;;;;;5115564;28;20563;-67
2021/04/26 01:42:29;;;;;;;30.10;15.55;;;;;;;;;;5114680;28;20505;-67
2021/04/26 01:44:56;;;;;;;31.30;16.15;;;;;;;;;;5115206;28;20489;-67
2021/04/26 01:47:22;;;;;;;30.35;15.82;;;;;;;;;;5115280;28;20035;-67
2021/04/26 01:49:48;;;;;;;34.10;16.13;;;;;;;;;;5115122;28;20024;-68
2021/04/26 01:52:14;;;;;;;34.00;17.33;;;;;;;;;;5115501;28;20030;-68
2021/04/26 01:54:40;;;;;;;37.58;17.45;;;;;;;;;;5115109;28;20039;-67
2021/04/26 01:57:07;;;;;;;34.40;16.52;;;;;;;;;;5114914;28;20369;-67
2021/04/26 01:59:36;;;;;;;33.45;15.88;;;;;;;;;;5114976;28;20023;-67
2021/04/26 02:02:01;;;;;;;36.45;16.17;;;;;;;;;;5116259;27;20015;-66
2021/04/26 02:04:28;;;;;;;31.00;16.38;;;;;;;;;;5114922;28;20124;-65
2021/04/26 02:07:27;;;;;;;37.33;17.35;;;;;;;;;;5092333;28;20123;-69
2021/04/26 02:10:21;;;;;;;40.40;18.42;;;;;;;;;;5109982;28;20036;-67
2021/04/26 02:12:48;;;;;;;40.38;18.92;;;;;;;;;;5114610;28;20024;-67
2021/04/26 02:15:15;;;;;;;38.42;17.83;;;;;;;;;;5097782;28;20020;-67
2021/04/26 02:17:41;;;;;;;35.75;17.42;;;;;;;;;;5115824;28;20529;-67
2021/04/26 02:20:08;;;;;;;33.60;17.52;;;;;;;;;;5114245;28;20066;-68
2021/04/26 02:22:34;;;;;;;37.75;19.70;;;;;;;;;;5114440;28;20027;-68
2021/04/26 02:25:03;;;;;;;35.70;18.77;;;;;;;;;;5115889;27;20571;-68
2021/04/26 02:27:33;;;;;;;36.35;18.70;;;;;;;;;;5114621;28;20024;-68
2021/04/26 02:29:59;;;;;;;34.30;17.50;;;;;;;;;;5114382;28;20031;-68
2021/04/26 02:32:27;;;;;;;37.42;17.98;;;;;;;;;;5115762;28;20023;-68
2021/04/26 02:35:15;;;;;;;;;;;;;;;;;;5116237;28;20019;-68
2021/04/26 02:37:44;;;;;;;37.83;18.77;;;;;;;;;;5115541;28;19934;-68
2021/04/26 02:40:13;;;;;;;35.08;16.92;;;;;;;;;;5114456;28;20373;-68
2021/04/26 02:42:46;;;;;;;31.45;16.42;;;;;;;;;;5113447;28;20055;-68
2021/04/26 02:45:19;;;;;;;38.50;17.10;;;;;;;;;;5097041;28;20034;-68
2021/04/26 02:47:46;;;;;;;31.80;17.40;;;;;;;;;;5114322;28;20030;-68
2021/04/26 02:50:18;;;;;;;38.53;17.38;;;;;;;;;;5114228;28;20054;-68
2021/04/26 02:52:53;;;;;;;35.47;18.17;;;;;;;;;;5114135;28;20077;-68
2021/04/26 02:55:20;;;;;;;36.83;17.52;;;;;;;;;;5113747;28;20027;-67
2021/04/26 02:57:46;;;;;;;48.95;21.48;;;;;;;;;;5113798;28;20050;-67
2021/04/26 03:00:14;;;;;;;46.60;21.20;;;;;;;;;;5113712;28;20485;-67
2021/04/26 03:03:00;;;;;;;41.40;19.50;;;;;;;;;;5114973;28;20406;-68
2021/04/26 03:05:26;;;;;;;40.38;19.35;;;;;;;;;;5113739;28;20058;-68
2021/04/26 03:07:53;;;;;;;36.63;17.63;;;;;;;;;;5113840;28;20039;-68
2021/04/26 03:10:20;;;;;;;33.17;16.98;;;;;;;;;;5114676;28;20034;-67
2021/04/26 03:12:47;;;;;;;34.08;16.75;;;;;;;;;;5096882;28;20114;-68
2021/04/26 03:15:14;;;;;;;36.60;17.77;;;;;;;;;;5113404;28;20080;-67
2021/04/26 03:17:40;;;;;;;35.80;17.63;;;;;;;;;;5096569;28;20450;-67
2021/04/26 03:20:08;;;;;;;51.25;26.90;;;;;;;;;;5113684;28;20031;-67
2021/04/26 03:22:47;;;;;;;52.85;25.23;;;;;;;;;;5113523;28;20098;-66
2021/04/26 03:25:17;;;;;;;49.30;25.92;;;;;;;;;;5114517;28;20024;-65
2021/04/26 03:27:45;;;;;;;50.70;23.67;;;;;;;;;;5113467;28;20507;-66
2021/04/26 03:30:11;;;;;;;42.90;20.60;;;;;;;;;;5114380;28;20035;-66
2021/04/26 03:32:49;;;;;;;40.50;19.40;;;;;;;;;;5113378;28;20016;-65
2021/04/26 03:35:17;;;;;;;37.28;18.55;;;;;;;;;;5096457;28;20019;-66
2021/04/26 03:37:47;;;;;;;37.65;18.90;;;;;;;;;;5112955;28;20030;-65
2021/04/26 03:40:19;;;;;;;40.60;19.15;;;;;;;;;;5112695;28;20038;-66
2021/04/26 03:42:45;;;;;;;40.00;18.00;;;;;;;;;;5095753;28;20051;-66
2021/04/26 03:45:16;;;;;;;39.38;18.77;;;;;;;;;;5112996;28;20024;-66
2021/04/26 03:47:42;;;;;;;38.20;18.33;;;;;;;;;;5114302;28;20059;-66
2021/04/26 03:50:25;;;;;;;38.17;18.67;;;;;;;;;;5114526;28;20022;-67
2021/04/26 03:53:09;;;;;;;41.10;20.35;;;;;;;;;;5114499;28;20054;-67
2021/04/26 03:55:49;;;;;;;37.50;19.08;;;;;;;;;;5113424;28;20053;-67
2021/04/26 03:58:16;;;;;;;42.83;21.15;;;;;;;;;;5112778;28;20038;-67
2021/04/26 04:00:41;;;;;;;40.67;19.70;;;;;;;;;;5114086;28;20016;-67
2021/04/26 04:03:10;;;;;;;45.05;21.60;;;;;;;;;;5112767;28;20034;-67
2021/04/26 04:05:38;;;;;;;43.35;21.85;;;;;;;;;;5112452;28;20471;-67
2021/04/26 04:08:22;;;;;;;47.28;22.90;;;;;;;;;;5114345;28;20034;-66
2021/04/26 04:11:07;;;;;;;47.60;23.13;;;;;;;;;;5102007;28;20034;-66
2021/04/26 04:13:59;;;;;;;48.42;23.02;;;;;;;;;;5112896;28;20035;-70
2021/04/26 04:16:28;;;;;;;40.72;21.58;;;;;;;;;;5112986;28;20466;-68
2021/04/26 04:18:55;;;;;;;40.83;20.40;;;;;;;;;;5114021;28;20020;-68
2021/04/26 04:21:21;;;;;;;41.00;19.15;;;;;;;;;;5112253;28;20292;-68
2021/04/26 04:23:47;;;;;;;38.42;18.80;;;;;;;;;;5112409;28;20024;-68
2021/04/26 04:26:15;;;;;;;36.60;19.23;;;;;;;;;;5112553;28;20043;-69
2021/04/26 04:28:51;;;;;;;35.60;18.33;;;;;;;;;;5112616;28;20072;-69
2021/04/26 04:31:39;;;;;;;36.53;17.92;;;;;;;;;;5112425;28;20027;-69
2021/04/26 04:34:36;;;;;;;39.17;17.92;;;;;;;;;;5113393;28;20063;-68
2021/04/26 04:37:20;;;;;;;36.33;17.88;;;;;;;;;;5114351;28;20042;-68
2021/04/26 04:40:05;;;;;;;42.20;18.95;;;;;;;;;;5113970;28;20085;-68
2021/04/26 04:42:55;;;;;;;45.25;18.88;;;;;;;;;;5107610;28;20047;-68
2021/04/26 04:45:24;;;;;;;51.75;20.67;;;;;;;;;;5112440;28;20032;-68
2021/04/26 04:48:09;;;;;;;50.08;20.75;;;;;;;;;;5113306;28;20081;-69
2021/04/26 04:50:45;;;;;;;44.90;20.50;;;;;;;;;;5112398;28;20024;-68
2021/04/26 04:53:11;;;;;;;44.10;21.13;;;;;;;;;;5112252;28;20032;-69
2021/04/26 04:55:36;;;;;;;39.13;20.77;;;;;;;;;;5112404;28;20209;-69
2021/04/26 04:58:02;;;;;;;45.28;20.77;;;;;;;;;;5112084;28;20035;-69
2021/04/26 05:00:27;;;;;;;39.83;19.45;;;;;;;;;;5112158;28;20024;-69
2021/04/26 05:03:16;;;;;;;42.55;20.67;;;;;;;;;;5084106;28;20066;-68
2021/04/26 05:06:00;;;;;;;42.63;21.23;;;;;;;;;;5114970;28;20369;-68
2021/04/26 05:08:44;;;;;;;36.50;18.40;;;;;;;;;;5117541;28;20436;-68
2021/04/26 05:11:28;;;;;;;34.25;17.00;;;;;;;;;;5117538;28;20031;-69
2021/04/26 05:14:12;;;;;;;36.55;16.92;;;;;;;;;;5117467;28;20511;-69
2021/04/26 05:16:38;;;;;;;34.28;16.10;;;;;;;;;;5116993;28;20031;-69
2021/04/26 05:19:03;;;;;;;31.65;15.98;;;;;;;;;;5117002;28;20058;-68
2021/04/26 05:21:29;;;;;;;34.75;15.75;;;;;;;;;;5116929;28;20027;-70
2021/04/26 05:23:55;;;;;;;29.55;15.75;;;;;;;;;;5098743;28;20468;-70
2021/04/26 05:26:21;;;;;;;29.52;16.08;;;;;;;;;;5115542;28;20024;-71
2021/04/26 05:28:47;;;;;;;22.90;11.45;;;;;;;;;;5115465;28;20034;-71
2021/04/26 05:31:13;;;;;;;22.00;10.93;;;;;;;;;;5115447;28;20047;-71
2021/04/26 05:33:39;;;;;;;19.75;10.98;;;;;;;;;;5115509;28;20055;-71
2021/04/26 05:36:32;;;;;;;20.63;12.27;;;;;;;;;;5115662;28;20034;-71
2021/04/26 05:39:01;;;;;;;21.38;11.27;;;;;;;;;;5115015;28;20028;-71
2021/04/26 05:41:27;;;;;;;26.27;12.25;;;;;;;;;;5114645;28;20127;-71
2021/04/26 05:43:53;;;;;;;21.75;11.13;;;;;;;;;;5116667;27;20019;-71
2021/04/26 05:46:19;;;;;;;19.73;10.27;;;;;;;;;;5115338;28;20040;-71
2021/04/26 05:48:44;;;;;;;22.05;11.13;;;;;;;;;;5116450;28;20384;-71
2021/04/26 05:51:10;;;;;;;20.40;10.82;;;;;;;;;;5115377;28;20055;-71
2021/04/26 05:53:35;;;;;;;19.40;9.98;;;;;;;;;;5115227;28;20061;-71
2021/04/26 05:56:01;;;;;;;19.13;10.38;;;;;;;;;;5116322;28;20015;-71
2021/04/26 05:58:27;;;;;;;21.20;10.48;;;;;;;;;;5116111;28;20594;-71
2021/04/26 06:00:52;;;;;;;14.73;8.48;;;;;;;;;;5116171;28;20023;-70
2021/04/26 06:03:18;;;;;;;15.95;8.40;;;;;;;;;;5115107;28;20506;-71
2021/04/26 06:05:43;;;;;;;16.92;9.05;;;;;;;;;;5116314;28;20038;-71
2021/04/26 06:08:09;;;;;;;16.08;8.38;;;;;;;;;;5114944;28;20027;-71
2021/04/26 06:10:35;;;;;;;15.40;8.40;;;;;;;;;;5116039;28;20467;-71
2021/04/26 06:13:01;;;;;;;33.35;9.43;;;;;;;;;;5116256;28;20114;-71
2021/04/26 06:15:27;;;;;;;18.60;8.35;;;;;;;;;;5116235;28;20106;-71
2021/04/26 06:18:05;;;;;;;12.57;7.18;;;;;;;;;;5113785;28;20500;-71
2021/04/26 06:20:30;;;;;;;17.42;10.05;;;;;;;;;;5114878;28;20028;-71
2021/04/26 06:22:56;;;;;;;122.40;55.72;;;;;;;;;;5114753;28;20369;-72
2021/04/26 06:25:22;;;;;;;10.30;5.55;;;;;;;;;;5115282;27;20480;-72
2021/04/26 06:27:47;;;;;;;39.90;27.95;;;;;;;;;;5115581;28;20038;-72
2021/04/26 06:30:16;;;;;;;9.55;6.93;;;;;;;;;;5115712;28;20019;-72
2021/04/26 06:32:41;;;;;;;191.85;81.65;;;;;;;;;;5115538;28;20016;-71
2021/04/26 06:35:07;;;;;;;18.08;12.82;;;;;;;;;;5114256;28;20038;-72
2021/04/26 06:37:33;;;;;;;65.97;25.83;;;;;;;;;;5114011;28;20024;-72
2021/04/26 06:40:00;;;;;;;546.80;232.55;;;;;;;;;;5115377;28;20020;-72
2021/04/26 06:42:25;;;;;;;366.60;141.40;;;;;;;;;;5115051;28;20122;-71
2021/04/26 06:44:51;;;;;;;353.00;131.10;;;;;;;;;;5114023;28;20119;-72
2021/04/26 06:47:16;;;;;;;290.23;97.57;;;;;;;;;;5114943;28;20458;-71
2021/04/26 06:49:41;;;;;;;11.82;6.43;;;;;;;;;;5114859;28;20032;-71
2021/04/26 06:52:07;;;;;;;7.15;4.50;;;;;;;;;;5114920;27;20032;-71
2021/04/26 06:54:32;;;;;;;6.63;3.72;;;;;;;;;;5113042;28;20512;-71
2021/04/26 06:56:58;;;;;;;5.55;3.45;;;;;;;;;;5113268;28;20182;-72
2021/04/26 06:59:24;;;;;;;83.70;26.00;;;;;;;;;;5113230;28;20077;-71
2021/04/26 07:01:50;;;;;;;14.82;6.85;;;;;;;;;;5113890;28;20027;-71
2021/04/26 07:04:15;;;;;;;6.95;3.83;;;;;;;;;;5113147;28;20027;-71
2021/04/26 07:06:41;;;;;;;5.53;3.83;;;;;;;;;;5114485;28;20051;-71
2021/04/26 07:09:06;;;;;;;3.28;2.97;;;;;;;;;;5114348;28;20023;-71
2021/04/26 07:11:32;;;;;;;4.78;2.45;;;;;;;;;;5114241;28;20027;-71
2021/04/26 07:13:57;;;;;;;2.75;2.28;;;;;;;;;;5113267;28;20118;-71
2021/04/26 07:16:22;;;;;;;60.45;18.48;;;;;;;;;;5114300;28;20027;-71
2021/04/26 07:18:48;;;;;;;4.43;2.97;;;;;;;;;;5114298;28;20066;-71
2021/04/26 07:21:14;;;;;;;2.95;1.90;;;;;;;;;;5114089;28;20065;-71
2021/04/26 07:23:39;;;;;;;14.20;4.60;;;;;;;;;;5114121;28;20023;-71
2021/04/26 07:26:05;;;;;;;4.53;2.47;;;;;;;;;;5113029;28;20355;-71
2021/04/26 07:28:31;;;;;;;2.72;2.17;;;;;;;;;;5113957;28;20370;-71
2021/04/26 07:30:56;;;;;;;112.65;32.45;;;;;;;;;;5113965;28;20480;-71
2021/04/26 07:33:26;;;;;;;65.65;13.98;;;;;;;;;;5114411;28;20142;-71
2021/04/26 07:35:51;;;;;;;8.00;3.95;;;;;;;;;;5112659;28;20073;-71
2021/04/26 07:38:18;;;;;;;3.08;1.60;;;;;;;;;;5113421;28;20024;-71
2021/04/26 07:40:43;;;;;;;18.35;7.10;;;;;;;;;;5113011;28;20035;-71
2021/04/26 07:43:09;;;;;;;2.22;2.03;;;;;;;;;;5113637;28;20028;-71
2021/04/26 07:45:34;;;;;;;2.60;1.73;;;;;;;;;;5112311;28;20039;-71
2021/04/26 07:48:12;;;;;;;4.13;1.88;;;;;;;;;;5113640;28;20110;-71
2021/04/26 07:50:39;;;;;;;59.45;20.58;;;;;;;;;;5113729;28;20024;-71
2021/04/26 07:53:04;;;;;;;3.53;2.17;;;;;;;;;;5112451;28;20011;-71
2021/04/26 07:55:30;;;;;;;1.80;1.23;;;;;;;;;;5113733;28;20515;-71
2021/04/26 07:57:55;;;;;;;69.10;30.75;;;;;;;;;;5112715;28;20042;-72
2021/04/26 08:00:21;;;;;;;5.57;3.50;;;;;;;;;;5113609;28;20030;-71
2021/04/26 08:02:46;;;;;;;2.20;1.20;;;;;;;;;;5114022;28;20095;-71
2021/04/26 08:05:12;;;;;;;4.15;2.60;;;;;;;;;;5112064;28;20027;-71
2021/04/26 08:07:38;;;;;;;3.25;2.20;;;;;;;;;;5112607;28;20019;-71
2021/04/26 08:10:03;;;;;;;5.22;3.83;;;;;;;;;;5113549;28;20031;-71
2021/04/26 08:12:29;;;;;;;11.50;7.30;;;;;;;;;;5113430;28;20442;-71
2021/04/26 08:14:54;;;;;;;13.32;6.15;;;;;;;;;;5113707;28;20027;-71
2021/04/26 08:17:20;;;;;;;2.20;1.45;;;;;;;;;;5113924;28;20445;-71
2021/04/26 08:19:45;;;;;;;2.55;1.73;;;;;;;;;;5113696;28;20085;-71
2021/04/26 08:22:11;;;;;;;1.20;1.10;;;;;;;;;;5113841;28;20062;-71
2021/04/26 08:24:37;;;;;;;0.90;0.80;;;;;;;;;;5112357;28;20032;-71
2021/04/26 08:27:02;;;;;;;17.45;8.40;;;;;;;;;;5112469;28;20024;-71
2021/04/26 08:29:28;;;;;;;4.43;2.33;;;;;;;;;;5112504;28;20392;-71
2021/04/26 08:31:54;;;;;;;19.10;11.30;;;;;;;;;;5113802;28;20347;-71
2021/04/26 08:34:19;;;;;;;2.45;1.92;;;;;;;;;;5112490;28;20028;-71
2021/04/26 08:36:45;;;;;;;13.02;7.78;;;;;;;;;;5112421;28;20038;-71
2021/04/26 08:39:10;;;;;;;21.33;12.40;;;;;;;;;;5113506;28;20034;-71
2021/04/26 08:41:38;;;;;;;1.48;1.10;;;;;;;;;;5115367;28;20046;-71
2021/04/26 08:44:04;;;;;;;8.52;5.05;;;;;;;;;;5116638;28;20096;-71
2021/04/26 08:46:29;;;;;;;6.28;4.18;;;;;;;;;;5117578;28;20477;-71
2021/04/26 08:48:56;;;;;;;2.70;1.15;;;;;;;;;;5117680;28;20019;-72
2021/04/26 08:51:22;;;;;;;1.30;1.13;;;;;;;;;;5117750;27;20042;-72
2021/04/26 08:53:48;;;;;;;1.83;1.25;;;;;;;;;;5116467;28;20560;-73
2021/04/26 08:56:13;;;;;;;1.45;1.10;;;;;;;;;;5117482;28;20076;-73
2021/04/26 08:58:39;;;;;;;1.75;1.58;;;;;;;;;;5115971;28;20066;-72
2021/04/26 09:01:04;;;;;;;1.75;1.30;;;;;;;;;;5116172;28;20023;-72
2021/04/26 09:03:31;;;;;;;1.45;1.00;;;;;;;;;;5117409;28;20024;-73
2021/04/26 09:05:56;;;;;;;1.92;1.25;;;;;;;;;;5116889;28;20039;-72
2021/04/26 09:08:27;;;;;;;1.80;1.10;;;;;;;;;;5117196;28;20020;-72
2021/04/26 09:10:58;;;;;;;2.15;1.13;;;;;;;;;;5116902;28;20114;-72
2021/04/26 09:13:35;;;;;;;1.55;1.05;;;;;;;;;;5115646;28;20031;-72
2021/04/26 09:16:04;;;;;;;1.10;1.00;;;;;;;;;;5117001;27;20485;-72
2021/04/26 09:18:43;;;;;;;1.55;1.13;;;;;;;;;;5116915;28;20050;-72
2021/04/26 09:21:13;;;;;;;1.58;0.93;;;;;;;;;;5116616;28;20059;-72
2021/04/26 09:23:38;;;;;;;1.60;1.13;;;;;;;;;;5116768;28;20027;-72
2021/04/26 09:26:04;;;;;;;1.02;0.93;;;;;;;;;;5116910;28;20016;-72
2021/04/26 09:28:29;;;;;;;1.50;1.15;;;;;;;;;;5115509;28;20062;-72
2021/04/26 09:30:55;;;;;;;1.20;1.10;;;;;;;;;;5116617;28;20031;-72
2021/04/26 09:33:26;;;;;;;1.40;1.08;;;;;;;;;;5115214;28;20507;-72
2021/04/26 09:36:22;;;;;;;1.35;1.13;;;;;;;;;;5116760;28;20554;-72
2021/04/26 09:38:49;;;;;;;1.20;1.10;;;;;;;;;;5114159;28;20156;-72
2021/04/26 09:41:19;;;;;;;1.30;1.20;;;;;;;;;;5116141;28;20040;-72
2021/04/26 09:43:47;;;;;;;3.17;1.83;;;;;;;;;;5115616;28;20039;-72
2021/04/26 09:46:14;;;;;;;2.72;1.60;;;;;;;;;;5116361;28;20037;-71
2021/04/26 09:48:39;;;;;;;1.60;1.45;;;;;;;;;;5116476;28;20031;-71
2021/04/26 09:51:09;;;;;;;2.78;1.58;;;;;;;;;;5116462;28;20457;-71
2021/04/26 09:53:41;;;;;;;2.42;1.20;;;;;;;;;;5115097;28;20042;-72
2021/04/26 09:56:17;;;;;;;6.95;3.03;;;;;;;;;;5116382;28;20028;-73
2021/04/26 09:58:44;;;;;;;1.92;1.20;;;;;;;;;;5116104;27;20031;-70
2021/04/26 10:01:10;;;;;;;1.20;1.10;;;;;;;;;;5116628;28;20427;-70
2021/04/26 10:03:35;;;;;;;1.00;0.95;;;;;;;;;;5116411;28;20020;-70
2021/04/26 10:06:01;;;;;;;1.20;1.10;;;;;;;;;;5116486;28;20094;-70
2021/04/26 10:08:27;;;;;;;123.65;44.05;;;;;;;;;;5115057;28;20055;-70
2021/04/26 10:10:52;;;;;;;551.50;219.77;;;;;;;;;;5116117;28;20062;-70
2021/04/26 10:13:21;;;;;;;22.00;8.52;;;;;;;;;;5114770;28;20055;-70
2021/04/26 10:15:46;;;;;;;3.25;2.08;;;;;;;;;;5116309;28;20024;-70
2021/04/26 10:18:13;;;;;;;1.35;1.25;;;;;;;;;;5116312;27;20477;-70
2021/04/26 10:20:40;;;;;;;2.03;1.38;;;;;;;;;;5115757;28;20031;-70
2021/04/26 10:23:26;;;;;;;1.58;1.35;;;;;;;;;;5114619;28;20456;-68
2021/04/26 10:25:52;;;;;;;1.20;1.10;;;;;;;;;;5115661;28;20111;-63
2021/04/26 10:28:28;;;;;;;2.03;1.20;;;;;;;;;;5114588;28;20118;-64
2021/04/26 10:30:57;;;;;;;1.13;1.05;;;;;;;;;;5115899;27;20023;-63
2021/04/26 10:33:23;;;;;;;1.35;1.23;;;;;;;;;;5115464;28;20033;-63
2021/04/26 10:35:55;;;;;;;2.28;1.38;;;;;;;;;;5115476;28;20397;-63
2021/04/26 10:38:51;;;;;;;1.20;1.10;;;;;;;;;;5115432;28;20038;-63
2021/04/26 10:41:45;;;;;;;2.83;1.63;;;;;;;;;;5092783;28;20468;-63
2021/04/26 10:44:11;;;;;;;1.08;0.98;;;;;;;;;;5114904;28;20032;-64
2021/04/26 10:46:37;;;;;;;1.27;1.15;;;;;;;;;;5115179;28;20027;-64
2021/04/26 10:49:06;;;;;;;1.88;1.20;;;;;;;;;;5115387;28;20031;-75
2021/04/26 10:51:34;;;;;;;677.03;197.93;;;;;;;;;;5114106;28;20016;-74
2021/04/26 10:54:00;;;;;;;15.38;7.07;;;;;;;;;;5115081;28;20058;-74
2021/04/26 10:56:26;;;;;;;1.63;1.05;;;;;;;;;;5114603;28;20366;-74
2021/04/26 10:59:12;;;;;;;1.40;1.10;;;;;;;;;;5096990;28;20402;-74
2021/04/26 11:01:48;;;;;;;1.27;0.70;;;;;;;;;;5100486;28;20043;-74
2021/04/26 11:04:14;;;;;;;1.33;0.98;;;;;;;;;;5114052;28;20028;-74
2021/04/26 11:06:58;;;;;;;1.02;0.95;;;;;;;;;;5096190;28;20015;-74
2021/04/26 11:09:35;;;;;;;1.55;0.98;;;;;;;;;;5115419;28;20426;-74
2021/04/26 11:12:03;;;;;;;1.33;1.13;;;;;;;;;;5114139;28;20020;-74
2021/04/26 11:14:29;;;;;;;63.90;24.90;;;;;;;;;;5114859;28;20062;-74
2021/04/26 11:17:02;;;;;;;87.10;32.65;;;;;;;;;;5113818;28;20036;-74
2021/04/26 11:19:28;;;;;;;225.63;77.50;;;;;;;;;;5114156;28;20040;-74
2021/04/26 11:21:54;;;;;;;4.00;2.95;;;;;;;;;;5112693;28;20024;-74
2021/04/26 11:24:24;;;;;;;4.95;3.63;;;;;;;;;;5114575;28;20081;-74
2021/04/26 11:27:08;;;;;;;1.05;1.00;;;;;;;;;;5114614;28;20038;-74
2021/04/26 11:29:46;;;;;;;1.48;1.38;;;;;;;;;;5114396;28;20031;-74
2021/04/26 11:32:12;;;;;;;1.48;1.00;;;;;;;;;;5114560;28;20058;-74
2021/04/26 11:34:47;;;;;;;1.35;1.05;;;;;;;;;;5112871;28;20015;-73
2021/04/26 11:37:13;;;;;;;1.00;0.90;;;;;;;;;;5113359;28;20439;-73
2021/04/26 11:39:41;;;;;;;1.33;0.95;;;;;;;;;;5096109;28;20023;-73
2021/04/26 11:42:07;;;;;;;9.13;2.90;;;;;;;;;;5112390;28;20528;-73
2021/04/26 11:44:37;;;;;;;2.38;1.60;;;;;;;;;;5114002;28;20055;-73
2021/04/26 11:47:07;;;;;;;2.10;1.38;;;;;;;;;;5113249;28;20031;-73
2021/04/26 11:49:33;;;;;;;3.10;1.75;;;;;;;;;;5112924;28;20484;-73
2021/04/26 11:51:59;;;;;;;38.65;8.32;;;;;;;;;;5110175;28;20350;-74
2021/04/26 11:54:26;;;;;;;15.52;5.65;;;;;;;;;;5113685;28;20031;-73
2021/04/26 11:57:21;;;;;;;33.25;11.73;;;;;;;;;;5114248;28;20445;-74
2021/04/26 11:59:53;;;;;;;2.92;1.80;;;;;;;;;;5112932;28;20040;-74
2021/04/26 12:02:29;;;;;;;1.23;0.88;;;;;;;;;;5112125;28;20036;-75
2021/04/26 12:05:00;;;;;;;2.67;0.98;;;;;;;;;;5114048;28;20085;-75
2021/04/26 12:07:26;;;;;;;1.13;1.00;;;;;;;;;;5113163;28;20023;-75
2021/04/26 12:09:57;;;;;;;1.95;0.90;;;;;;;;;;5113419;28;20023;-75
2021/04/26 12:12:25;;;;;;;1.13;1.02;;;;;;;;;;5112674;28;20035;-75
2021/04/26 12:14:54;;;;;;;0.85;0.80;;;;;;;;;;5113939;28;20038;-75
2021/04/26 12:17:24;;;;;;;1.17;0.80;;;;;;;;;;5112117;28;20036;-75
2021/04/26 12:19:49;;;;;;;1.17;1.02;;;;;;;;;;5113666;28;20015;-75
2021/04/26 12:22:15;;;;;;;1.50;1.30;;;;;;;;;;5112534;28;20037;-75
2021/04/26 12:24:43;;;;;;;1.73;1.13;;;;;;;;;;5112754;28;20168;-75
2021/04/26 12:27:10;;;;;;;2.25;0.90;;;;;;;;;;5113820;28;20059;-74
2021/04/26 12:29:35;;;;;;;1.42;1.23;;;;;;;;;;5112783;28;20101;-74
2021/04/26 12:32:17;;;;;;;1.70;1.08;;;;;;;;;;5114228;28;20070;-74
2021/04/26 12:34:45;;;;;;;3.10;1.25;;;;;;;;;;5113779;28;20061;-71
2021/04/26 12:37:11;;;;;;;1.58;1.27;;;;;;;;;;5113771;28;20057;-71
2021/04/26 12:39:36;;;;;;;1.20;1.10;;;;;;;;;;5111964;28;20023;-71
2021/04/26 12:42:28;;;;;;;1.30;0.88;;;;;;;;;;5112982;28;20086;-71
2021/04/26 12:45:06;;;;;;;1.20;1.00;;;;;;;;;;5107365;28;20377;-71
2021/04/26 12:47:32;;;;;;;1.27;1.00;;;;;;;;;;5113075;28;20474;-73
2021/04/26 12:50:13;;;;;;;2.03;1.65;;;;;;;;;;5112394;28;20146;-74
2021/04/26 12:52:39;;;;;;;2.03;1.77;;;;;;;;;;5112208;28;20026;-74
2021/04/26 12:55:05;;;;;;;1.38;1.25;;;;;;;;;;5112567;28;20008;-74
2021/04/26 12:57:31;;;;;;;2.78;1.90;;;;;;;;;;5113069;28;20024;-74
2021/04/26 12:59:56;;;;;;;4.45;3.00;;;;;;;;;;5112313;28;20023;-74
2021/04/26 13:02:23;;;;;;;2.50;1.50;;;;;;;;;;5112177;28;20023;-73
2021/04/26 13:04:50;;;;;;;1.55;1.40;;;;;;;;;;5094554;28;20027;-73
2021/04/26 13:07:16;;;;;;;3.28;1.27;;;;;;;;;;5112860;28;20028;-73
2021/04/26 13:09:41;;;;;;;2.72;1.50;;;;;;;;;;5113084;28;20016;-73
2021/04/26 13:12:07;;;;;;;1.50;1.40;;;;;;;;;;5112823;28;20028;-73
2021/04/26 13:14:34;;;;;;;1.75;1.60;;;;;;;;;;5112976;28;20534;-73
2021/04/26 13:17:04;;;;;;;10.35;5.05;;;;;;;;;;5111753;28;20028;-73
2021/04/26 13:19:31;;;;;;;6.45;4.25;;;;;;;;;;5113127;28;20023;-73
2021/04/26 13:21:56;;;;;;;1.60;1.50;;;;;;;;;;5112397;28;20030;-73
2021/04/26 13:24:25;;;;;;;1.83;1.50;;;;;;;;;;5113301;28;20106;-73
2021/04/26 13:26:58;;;;;;;9.70;3.47;;;;;;;;;;5112289;28;20445;-73
2021/04/26 13:29:27;;;;;;;5.68;3.35;;;;;;;;;;5115639;28;20484;-73
2021/04/26 13:31:54;;;;;;;6.45;3.42;;;;;;;;;;5115550;28;20045;-73
2021/04/26 13:34:20;;;;;;;10.60;5.65;;;;;;;;;;5116469;28;20035;-72
2021/04/26 13:36:46;;;;;;;2.17;1.98;;;;;;;;;;5117158;27;20024;-73
2021/04/26 13:39:13;;;;;;;3.35;2.20;;;;;;;;;;5116870;28;20024;-73
2021/04/26 13:41:39;;;;;;;37.55;23.00;;;;;;;;;;5114806;28;20567;-72
2021/04/26 13:44:05;;;;;;;9.82;7.57;;;;;;;;;;5115721;28;20027;-72
2021/04/26 13:46:31;;;;;;;5.63;3.50;;;;;;;;;;5115414;28;20048;-72
2021/04/26 13:48:59;;;;;;;3.28;1.83;;;;;;;;;;5115286;28;20056;-72
2021/04/26 13:51:24;;;;;;;1.30;1.20;;;;;;;;;;5116499;28;20019;-73
2021/04/26 13:53:50;;;;;;;1.52;1.42;;;;;;;;;;5116898;28;20080;-73
2021/04/26 13:56:16;;;;;;;2.33;1.70;;;;;;;;;;5115283;28;20094;-73
2021/04/26 13:58:43;;;;;;;1.60;1.20;;;;;;;;;;5116221;28;20501;-73
2021/04/26 14:01:09;;;;;;;3.45;1.48;;;;;;;;;;5114967;28;20118;-73
2021/04/26 14:03:34;;;;;;;1.63;1.52;;;;;;;;;;5116686;28;20165;-73
2021/04/26 14:06:00;;;;;;;1.45;1.33;;;;;;;;;;5116221;28;20019;-73
2021/04/26 14:08:26;;;;;;;2.47;1.63;;;;;;;;;;5115943;28;20024;-73
2021/04/26 14:10:51;;;;;;;1.90;1.60;;;;;;;;;;5116055;28;20019;-72
2021/04/26 14:13:18;;;;;;;4.95;1.92;;;;;;;;;;5115031;28;20526;-72
2021/04/26 14:15:43;;;;;;;3.00;1.15;;;;;;;;;;5116339;28;20102;-72
2021/04/26 14:18:12;;;;;;;69.63;19.67;;;;;;;;;;5116332;28;20441;-73
2021/04/26 14:20:38;;;;;;;13.93;6.10;;;;;;;;;;5116192;28;20019;-72
2021/04/26 14:23:07;;;;;;;2.60;1.77;;;;;;;;;;5115926;28;20027;-71
2021/04/26 14:25:33;;;;;;;5.35;1.73;;;;;;;;;;5114526;28;20432;-65
2021/04/26 14:27:59;;;;;;;3.65;1.67;;;;;;;;;;5115172;28;20023;-65
2021/04/26 14:30:24;;;;;;;2.45;1.85;;;;;;;;;;5114886;28;20030;-66
2021/04/26 14:32:50;;;;;;;6.43;3.17;;;;;;;;;;5115690;28;20028;-67
2021/04/26 14:35:15;;;;;;;3.97;2.40;;;;;;;;;;5115692;28;20516;-67
2021/04/26 14:37:41;;;;;;;3.65;2.30;;;;;;;;;;5115825;28;20026;-66
2021/04/26 14:40:06;;;;;;;3.13;2.10;;;;;;;;;;5113670;28;20110;-65